sensor_id;sensor_type;location;lat;lon;timestamp;pressure;altitude;pressure_sealevel;temperature;humidity
28181;BME280;15464;50.988;10.318;2022-08-19T00:01:38;98512.22;;;18.43;82.34
28181;BME280;15464;50.988;10.318;2022-08-19T00:04:06;98508.91;;;18.41;82.36
28181;BME280;15464;50.988;10.318;2022-08-19T00:06:34;98512.78;;;18.38;82.44
28181;BME280;15464;50.988;10.318;2022-08-19T00:09:02;98512.78;;;18.38;81.25
28181;BME280;15464;50.988;10.318;2022-08-19T00:11:29;98517.31;;;18.38;82.58
28181;BME280;15464;50.988;10.318;2022-08-19T00:13:56;98507.81;;;18.35;84.13
28181;BME280;15464;50.988;10.318;2022-08-19T00:16:23;98514.38;;;18.33;82.88
28181;BME280;15464;50.988;10.318;2022-08-19T00:18:52;98509.19;;;18.31;82.44
28181;BME280;15464;50.988;10.318;2022-08-19T00:21:19;98520.16;;;18.30;83.12
28181;BME280;15464;50.988;10.318;2022-08-19T00:23:45;98520.97;;;18.30;82.98
28181;BME280;15464;50.988;10.318;2022-08-19T00:26:12;98519.31;;;18.29;83.16
28181;BME280;15464;50.988;10.318;2022-08-19T00:28:38;98517.66;;;18.28;82.66
28181;BME280;15464;50.988;10.318;2022-08-19T00:31:06;98503.56;;;18.26;82.66
28181;BME280;15464;50.988;10.318;2022-08-19T00:33:33;98493.22;;;18.23;82.95
28181;BME280;15464;50.988;10.318;2022-08-19T00:36:00;98489.50;;;18.24;83.04
28181;BME280;15464;50.988;10.318;2022-08-19T00:38:27;98488.88;;;18.22;82.60
28181;BME280;15464;50.988;10.318;2022-08-19T00:41:03;98493.41;;;18.22;83.42
28181;BME280;15464;50.988;10.318;2022-08-19T00:43:31;98494.63;;;18.19;84.04
28181;BME280;15464;50.988;10.318;2022-08-19T00:45:57;98497.69;;;18.16;83.82
28181;BME280;15464;50.988;10.318;2022-08-19T00:48:24;98496.03;;;18.15;83.18
28181;BME280;15464;50.988;10.318;2022-08-19T00:50:50;98491.66;;;18.14;83.60
28181;BME280;15464;50.988;10.318;2022-08-19T00:53:20;98482.97;;;18.12;84.10
28181;BME280;15464;50.988;10.318;2022-08-19T00:55:48;98481.34;;;18.11;83.61
28181;BME280;15464;50.988;10.318;2022-08-19T00:58:17;98473.66;;;18.08;84.07
28181;BME280;15464;50.988;10.318;2022-08-19T01:00:45;98478.19;;;18.07;83.52
28181;BME280;15464;50.988;10.318;2022-08-19T01:03:14;98488.25;;;18.05;83.87
28181;BME280;15464;50.988;10.318;2022-08-19T01:05:44;98489.31;;;18.04;83.83
28181;BME280;15464;50.988;10.318;2022-08-19T01:08:11;98494.84;;;18.03;82.83
28181;BME280;15464;50.988;10.318;2022-08-19T01:10:47;98489.69;;;18.01;83.08
28181;BME280;15464;50.988;10.318;2022-08-19T01:13:15;98488.00;;;18.00;82.96
28181;BME280;15464;50.988;10.318;2022-08-19T01:15:45;98481.81;;;18.00;84.79
28181;BME280;15464;50.988;10.318;2022-08-19T01:18:12;98486.72;;;17.96;84.17
28181;BME280;15464;50.988;10.318;2022-08-19T01:20:40;98492.94;;;17.97;84.53
28181;BME280;15464;50.988;10.318;2022-08-19T01:23:07;98487.56;;;17.97;84.01
28181;BME280;15464;50.988;10.318;2022-08-19T01:25:50;98484.88;;;17.97;84.24
28181;BME280;15464;50.988;10.318;2022-08-19T01:28:18;98474.16;;;17.97;85.17
28181;BME280;15464;50.988;10.318;2022-08-19T01:30:59;98479.69;;;17.95;85.24
28181;BME280;15464;50.988;10.318;2022-08-19T01:33:33;98477.66;;;17.97;85.86
28181;BME280;15464;50.988;10.318;2022-08-19T01:36:22;98473.13;;;17.98;84.36
28181;BME280;15464;50.988;10.318;2022-08-19T01:38:48;98462.00;;;18.01;83.53
28181;BME280;15464;50.988;10.318;2022-08-19T01:41:16;98464.50;;;18.02;85.59
28181;BME280;15464;50.988;10.318;2022-08-19T01:43:43;98466.53;;;18.00;85.33
28181;BME280;15464;50.988;10.318;2022-08-19T01:46:31;98474.41;;;18.02;85.61
28181;BME280;15464;50.988;10.318;2022-08-19T01:48:58;98471.72;;;18.02;85.66
28181;BME280;15464;50.988;10.318;2022-08-19T01:51:24;98472.75;;;18.01;86.84
28181;BME280;15464;50.988;10.318;2022-08-19T01:53:52;98475.25;;;18.02;86.00
28181;BME280;15464;50.988;10.318;2022-08-19T01:56:19;98476.06;;;18.03;84.81
28181;BME280;15464;50.988;10.318;2022-08-19T01:58:49;98467.63;;;18.06;85.65
28181;BME280;15464;50.988;10.318;2022-08-19T02:01:17;98463.31;;;18.05;85.40
28181;BME280;15464;50.988;10.318;2022-08-19T02:03:44;98462.47;;;18.04;85.68
28181;BME280;15464;50.988;10.318;2022-08-19T02:06:12;98470.31;;;18.06;84.69
28181;BME280;15464;50.988;10.318;2022-08-19T02:08:39;98464.09;;;18.05;84.69
28181;BME280;15464;50.988;10.318;2022-08-19T02:11:06;98456.88;;;18.06;85.25
28181;BME280;15464;50.988;10.318;2022-08-19T02:13:33;98453.19;;;18.07;85.14
28181;BME280;15464;50.988;10.318;2022-08-19T02:16:00;98457.53;;;18.08;85.56
28181;BME280;15464;50.988;10.318;2022-08-19T02:18:29;98455.88;;;18.07;84.89
28181;BME280;15464;50.988;10.318;2022-08-19T02:20:56;98457.53;;;18.08;84.90
28181;BME280;15464;50.988;10.318;2022-08-19T02:23:22;98459.22;;;18.09;84.00
28181;BME280;15464;50.988;10.318;2022-08-19T02:25:49;98454.66;;;18.09;85.23
28181;BME280;15464;50.988;10.318;2022-08-19T02:28:15;98456.06;;;18.05;84.67
28181;BME280;15464;50.988;10.318;2022-08-19T02:30:44;98456.88;;;18.06;87.24
28181;BME280;15464;50.988;10.318;2022-08-19T02:33:11;98449.59;;;18.00;87.22
28181;BME280;15464;50.988;10.318;2022-08-19T02:35:40;98462.84;;;18.01;87.77
28181;BME280;15464;50.988;10.318;2022-08-19T02:38:06;98456.63;;;18.01;86.67
28181;BME280;15464;50.988;10.318;2022-08-19T02:40:52;98452.94;;;18.02;84.97
28181;BME280;15464;50.988;10.318;2022-08-19T02:43:19;98451.53;;;18.06;86.46
28181;BME280;15464;50.988;10.318;2022-08-19T02:45:46;98457.09;;;18.04;85.59
28181;BME280;15464;50.988;10.318;2022-08-19T02:48:18;98452.75;;;18.03;85.65
28181;BME280;15464;50.988;10.318;2022-08-19T02:50:47;98460.34;;;18.00;88.03
28181;BME280;15464;50.988;10.318;2022-08-19T02:53:18;98472.13;;;17.99;86.66
28181;BME280;15464;50.988;10.318;2022-08-19T02:55:46;98475.41;;;18.01;86.00
28181;BME280;15464;50.988;10.318;2022-08-19T02:58:13;98471.72;;;18.02;85.89
28181;BME280;15464;50.988;10.318;2022-08-19T03:00:46;98467.00;;;18.04;84.21
28181;BME280;15464;50.988;10.318;2022-08-19T03:03:13;98463.31;;;18.05;86.15
28181;BME280;15464;50.988;10.318;2022-08-19T03:05:40;98463.66;;;18.02;85.18
28181;BME280;15464;50.988;10.318;2022-08-19T03:08:22;98465.34;;;18.03;86.02
28181;BME280;15464;50.988;10.318;2022-08-19T03:10:49;98477.09;;;18.02;85.57
28181;BME280;15464;50.988;10.318;2022-08-19T03:13:16;98476.06;;;18.03;86.43
28181;BME280;15464;50.988;10.318;2022-08-19T03:15:43;98477.09;;;18.02;85.56
28181;BME280;15464;50.988;10.318;2022-08-19T03:18:10;98476.91;;;18.03;85.20
28181;BME280;15464;50.988;10.318;2022-08-19T03:20:45;98481.81;;;18.00;86.21
28181;BME280;15464;50.988;10.318;2022-08-19T03:23:12;98479.34;;;17.98;85.55
28181;BME280;15464;50.988;10.318;2022-08-19T03:25:39;98474.97;;;17.97;85.22
28181;BME280;15464;50.988;10.318;2022-08-19T03:28:08;98479.50;;;17.97;86.03
28181;BME280;15464;50.988;10.318;2022-08-19T03:30:35;98487.94;;;17.94;86.05
28181;BME280;15464;50.988;10.318;2022-08-19T03:33:01;98477.59;;;17.91;86.81
28181;BME280;15464;50.988;10.318;2022-08-19T03:35:30;98486.66;;;17.90;86.19
28181;BME280;15464;50.988;10.318;2022-08-19T03:37:58;98483.31;;;17.88;86.37
28181;BME280;15464;50.988;10.318;2022-08-19T03:40:24;98483.72;;;17.85;86.48
28181;BME280;15464;50.988;10.318;2022-08-19T03:42:51;98486.56;;;17.83;84.86
28181;BME280;15464;50.988;10.318;2022-08-19T03:45:17;98483.72;;;17.85;85.08
28181;BME280;15464;50.988;10.318;2022-08-19T03:47:44;98484.06;;;17.82;86.18
28181;BME280;15464;50.988;10.318;2022-08-19T03:50:11;98483.63;;;17.78;86.24
28181;BME280;15464;50.988;10.318;2022-08-19T03:52:38;98482.31;;;17.74;87.34
28181;BME280;15464;50.988;10.318;2022-08-19T03:55:10;98490.19;;;17.76;86.13
28181;BME280;15464;50.988;10.318;2022-08-19T03:57:37;98497.78;;;17.72;86.06
28181;BME280;15464;50.988;10.318;2022-08-19T04:00:04;98496.94;;;17.71;86.36
28181;BME280;15464;50.988;10.318;2022-08-19T04:02:39;98496.47;;;17.68;86.65
28181;BME280;15464;50.988;10.318;2022-08-19T04:05:06;98508.25;;;17.67;86.45
28181;BME280;15464;50.988;10.318;2022-08-19T04:07:34;98504.09;;;17.64;89.24
28181;BME280;15464;50.988;10.318;2022-08-19T04:10:00;98510.09;;;17.66;92.92
28181;BME280;15464;50.988;10.318;2022-08-19T04:12:27;98518.50;;;17.63;92.16
28181;BME280;15464;50.988;10.318;2022-08-19T04:14:54;98519.81;;;17.67;91.05
28181;BME280;15464;50.988;10.318;2022-08-19T04:17:20;98521.09;;;17.71;93.29
28181;BME280;15464;50.988;10.318;2022-08-19T04:19:47;98517.84;;;17.76;94.32
28181;BME280;15464;50.988;10.318;2022-08-19T04:22:13;98520.16;;;17.79;95.88
28181;BME280;15464;50.988;10.318;2022-08-19T04:24:40;98527.66;;;17.84;97.94
28181;BME280;15464;50.988;10.318;2022-08-19T04:27:06;98519.41;;;17.85;96.90
28181;BME280;15464;50.988;10.318;2022-08-19T04:29:33;98521.72;;;17.88;96.44
28181;BME280;15464;50.988;10.318;2022-08-19T04:32:00;98523.47;;;17.96;97.21
28181;BME280;15464;50.988;10.318;2022-08-19T04:34:34;98524.13;;;17.98;96.05
28181;BME280;15464;50.988;10.318;2022-08-19T04:37:21;98529.75;;;18.03;95.23
28181;BME280;15464;50.988;10.318;2022-08-19T04:39:47;98521.13;;;18.07;95.39
28181;BME280;15464;50.988;10.318;2022-08-19T04:42:32;98517.88;;;18.12;95.02
28181;BME280;15464;50.988;10.318;2022-08-19T04:45:06;98518.34;;;18.16;94.09
28181;BME280;15464;50.988;10.318;2022-08-19T04:47:37;98518.41;;;18.22;94.11
28181;BME280;15464;50.988;10.318;2022-08-19T04:50:24;98519.69;;;18.26;94.67
28181;BME280;15464;50.988;10.318;2022-08-19T04:52:51;98525.53;;;18.30;94.18
28181;BME280;15464;50.988;10.318;2022-08-19T04:55:18;98523.28;;;18.33;93.86
28181;BME280;15464;50.988;10.318;2022-08-19T04:57:45;98522.91;;;18.36;93.92
28181;BME280;15464;50.988;10.318;2022-08-19T05:00:11;98518.16;;;18.38;93.92
28181;BME280;15464;50.988;10.318;2022-08-19T05:02:38;98504.97;;;18.43;92.91
28181;BME280;15464;50.988;10.318;2022-08-19T05:05:05;98511.00;;;18.45;93.51
28181;BME280;15464;50.988;10.318;2022-08-19T05:07:32;98515.34;;;18.46;93.58
28181;BME280;15464;50.988;10.318;2022-08-19T05:09:59;98512.50;;;18.48;93.17
28181;BME280;15464;50.988;10.318;2022-08-19T05:12:26;98510.88;;;18.53;92.99
28181;BME280;15464;50.988;10.318;2022-08-19T05:14:55;98515.06;;;18.56;92.70
28181;BME280;15464;50.988;10.318;2022-08-19T05:17:23;98522.94;;;18.58;92.50
28181;BME280;15464;50.988;10.318;2022-08-19T05:19:53;98517.63;;;18.64;92.05
28181;BME280;15464;50.988;10.318;2022-08-19T05:22:38;98516.84;;;18.70;91.72
28181;BME280;15464;50.988;10.318;2022-08-19T05:25:06;98511.09;;;18.73;91.35
28181;BME280;15464;50.988;10.318;2022-08-19T05:27:43;98504.50;;;18.76;91.00
28181;BME280;15464;50.988;10.318;2022-08-19T05:30:10;98513.22;;;18.78;90.37
28181;BME280;15464;50.988;10.318;2022-08-19T05:32:38;98521.50;;;18.83;90.90
28181;BME280;15464;50.988;10.318;2022-08-19T05:35:05;98518.44;;;18.86;90.19
28181;BME280;15464;50.988;10.318;2022-08-19T05:37:31;98523.66;;;18.94;89.78
28181;BME280;15464;50.988;10.318;2022-08-19T05:39:58;98523.91;;;18.99;89.39
28181;BME280;15464;50.988;10.318;2022-08-19T05:42:25;98527.88;;;19.03;89.26
28181;BME280;15464;50.988;10.318;2022-08-19T05:44:52;98528.31;;;19.07;89.42
28181;BME280;15464;50.988;10.318;2022-08-19T05:47:19;98533.13;;;19.11;88.69
28181;BME280;15464;50.988;10.318;2022-08-19T05:49:46;98532.91;;;19.13;88.65
28181;BME280;15464;50.988;10.318;2022-08-19T05:52:14;98537.91;;;19.16;88.04
28181;BME280;15464;50.988;10.318;2022-08-19T05:54:44;98538.75;;;19.16;87.68
28181;BME280;15464;50.988;10.318;2022-08-19T05:57:16;98534.81;;;19.19;87.45
28181;BME280;15464;50.988;10.318;2022-08-19T05:59:43;98537.56;;;19.25;87.28
28181;BME280;15464;50.988;10.318;2022-08-19T06:02:12;98538.84;;;19.29;86.29
28181;BME280;15464;50.988;10.318;2022-08-19T06:04:39;98543.59;;;19.27;85.47
28181;BME280;15464;50.988;10.318;2022-08-19T06:07:09;98539.47;;;19.31;84.80
28181;BME280;15464;50.988;10.318;2022-08-19T06:09:38;98545.06;;;19.37;85.87
28181;BME280;15464;50.988;10.318;2022-08-19T06:12:04;98540.34;;;19.39;83.86
28181;BME280;15464;50.988;10.318;2022-08-19T06:14:31;98546.38;;;19.41;83.79
28181;BME280;15464;50.988;10.318;2022-08-19T06:16:59;98542.59;;;19.35;83.44
28181;BME280;15464;50.988;10.318;2022-08-19T06:19:32;98552.00;;;19.46;83.77
28181;BME280;15464;50.988;10.318;2022-08-19T06:21:59;98558.91;;;19.55;83.17
28181;BME280;15464;50.988;10.318;2022-08-19T06:24:28;98558.72;;;19.63;82.63
28181;BME280;15464;50.988;10.318;2022-08-19T06:26:55;98566.44;;;19.66;81.51
28181;BME280;15464;50.988;10.318;2022-08-19T06:29:27;98563.56;;;19.74;81.64
28181;BME280;15464;50.988;10.318;2022-08-19T06:31:56;98569.81;;;19.81;80.83
28181;BME280;15464;50.988;10.318;2022-08-19T06:34:23;98570.69;;;19.88;80.42
28181;BME280;15464;50.988;10.318;2022-08-19T06:36:51;98569.50;;;19.97;79.72
28181;BME280;15464;50.988;10.318;2022-08-19T06:39:19;98579.47;;;20.03;79.82
28181;BME280;15464;50.988;10.318;2022-08-19T06:41:47;98585.22;;;20.00;78.59
28181;BME280;15464;50.988;10.318;2022-08-19T06:44:20;98584.66;;;20.05;78.16
28181;BME280;15464;50.988;10.318;2022-08-19T06:46:50;98596.06;;;20.13;77.18
28181;BME280;15464;50.988;10.318;2022-08-19T06:49:20;98597.31;;;20.18;76.89
28181;BME280;15464;50.988;10.318;2022-08-19T06:51:47;98604.00;;;20.22;76.69
28181;BME280;15464;50.988;10.318;2022-08-19T06:54:15;98599.03;;;20.32;76.65
28181;BME280;15464;50.988;10.318;2022-08-19T06:56:44;98596.59;;;20.37;75.84
28181;BME280;15464;50.988;10.318;2022-08-19T06:59:12;98598.69;;;20.35;75.18
28181;BME280;15464;50.988;10.318;2022-08-19T07:01:42;98600.78;;;20.46;75.25
28181;BME280;15464;50.988;10.318;2022-08-19T07:04:09;98594.59;;;20.52;74.10
28181;BME280;15464;50.988;10.318;2022-08-19T07:06:37;98601.69;;;20.60;73.23
28181;BME280;15464;50.988;10.318;2022-08-19T07:09:10;98602.50;;;20.60;73.21
28181;BME280;15464;50.988;10.318;2022-08-19T07:11:37;98596.91;;;20.68;72.57
28181;BME280;15464;50.988;10.318;2022-08-19T07:14:03;98599.59;;;20.68;70.56
28181;BME280;15464;50.988;10.318;2022-08-19T07:16:44;98610.38;;;20.62;69.35
28181;BME280;15464;50.988;10.318;2022-08-19T07:19:12;98604.19;;;20.61;69.36
28181;BME280;15464;50.988;10.318;2022-08-19T07:21:44;98615.56;;;20.63;67.99
28181;BME280;15464;50.988;10.318;2022-08-19T07:24:11;98609.56;;;20.68;67.68
28181;BME280;15464;50.988;10.318;2022-08-19T07:26:40;98604.16;;;20.68;67.37
28181;BME280;15464;50.988;10.318;2022-08-19T07:29:07;98612.09;;;20.82;68.42
28181;BME280;15464;50.988;10.318;2022-08-19T07:31:34;98618.31;;;20.89;67.98
28181;BME280;15464;50.988;10.318;2022-08-19T07:34:06;98614.16;;;20.87;66.66
28181;BME280;15464;50.988;10.318;2022-08-19T07:36:34;98612.53;;;20.92;66.79
28181;BME280;15464;50.988;10.318;2022-08-19T07:39:02;98612.53;;;20.92;66.99
28181;BME280;15464;50.988;10.318;2022-08-19T07:41:30;98615.81;;;20.88;67.60
28181;BME280;15464;50.988;10.318;2022-08-19T07:43:58;98626.59;;;20.88;68.51
28181;BME280;15464;50.988;10.318;2022-08-19T07:46:28;98624.56;;;20.90;67.18
28181;BME280;15464;50.988;10.318;2022-08-19T07:48:56;98628.69;;;20.86;67.48
28181;BME280;15464;50.988;10.318;2022-08-19T07:51:23;98628.25;;;20.82;67.54
28181;BME280;15464;50.988;10.318;2022-08-19T07:54:02;98635.13;;;20.85;67.44
28181;BME280;15464;50.988;10.318;2022-08-19T07:56:28;98644.47;;;20.96;67.52
28181;BME280;15464;50.988;10.318;2022-08-19T07:58:55;98644.47;;;20.96;66.86
28181;BME280;15464;50.988;10.318;2022-08-19T08:01:26;98640.31;;;21.00;67.05
28181;BME280;15464;50.988;10.318;2022-08-19T08:03:54;98642.84;;;21.08;67.48
28181;BME280;15464;50.988;10.318;2022-08-19T08:06:41;98652.84;;;21.20;67.03
28181;BME280;15464;50.988;10.318;2022-08-19T08:09:29;98647.66;;;21.25;65.95
28181;BME280;15464;50.988;10.318;2022-08-19T08:11:58;98654.84;;;21.12;65.41
28181;BME280;15464;50.988;10.318;2022-08-19T08:17:12;98662.56;;;21.15;65.10
28181;BME280;15464;50.988;10.318;2022-08-19T08:19:56;98664.47;;;21.21;64.61
28181;BME280;15464;50.988;10.318;2022-08-19T08:22:24;98664.00;;;21.11;64.88
28181;BME280;15464;50.988;10.318;2022-08-19T08:25:10;98662.81;;;21.20;65.18
28181;BME280;15464;50.988;10.318;2022-08-19T08:27:40;98660.88;;;21.14;63.90
28181;BME280;15464;50.988;10.318;2022-08-19T08:30:11;98666.28;;;21.14;63.60
28181;BME280;15464;50.988;10.318;2022-08-19T08:32:38;98672.34;;;21.16;63.28
28181;BME280;15464;50.988;10.318;2022-08-19T08:35:06;98668.63;;;21.17;63.55
28181;BME280;15464;50.988;10.318;2022-08-19T08:37:33;98667.16;;;21.21;63.29
28181;BME280;15464;50.988;10.318;2022-08-19T08:40:04;98669.22;;;21.19;63.04
28181;BME280;15464;50.988;10.318;2022-08-19T08:42:39;98668.78;;;21.09;63.29
28181;BME280;15464;50.988;10.318;2022-08-19T08:45:11;98667.31;;;21.13;62.99
28181;BME280;15464;50.988;10.318;2022-08-19T08:47:43;98675.03;;;21.16;62.69
28181;BME280;15464;50.988;10.318;2022-08-19T08:50:21;98683.97;;;21.16;62.77
28181;BME280;15464;50.988;10.318;2022-08-19T08:52:52;98676.09;;;21.21;62.35
28181;BME280;15464;50.988;10.318;2022-08-19T08:55:26;98667.56;;;21.31;62.19
28181;BME280;15464;50.988;10.318;2022-08-19T08:58:24;98668.63;;;21.23;62.27
28181;BME280;15464;50.988;10.318;2022-08-19T09:00:52;98677.75;;;21.29;61.74
28181;BME280;15464;50.988;10.318;2022-08-19T09:03:23;98676.94;;;21.35;61.61
28181;BME280;15464;50.988;10.318;2022-08-19T09:08:30;98672.59;;;21.47;61.31
28181;BME280;15464;50.988;10.318;2022-08-19T09:10:59;98677.16;;;21.60;60.56
28181;BME280;15464;50.988;10.318;2022-08-19T09:16:19;98673.38;;;21.87;59.85
28181;BME280;15464;50.988;10.318;2022-08-19T09:18:54;98678.38;;;21.84;59.24
28181;BME280;15464;50.988;10.318;2022-08-19T09:21:22;98672.59;;;21.73;59.18
28181;BME280;15464;50.988;10.318;2022-08-19T09:23:55;98678.59;;;21.89;59.16
28181;BME280;15464;50.988;10.318;2022-08-19T09:26:25;98686.88;;;21.94;58.25
28181;BME280;15464;50.988;10.318;2022-08-19T09:29:12;98683.16;;;21.95;57.74
28181;BME280;15464;50.988;10.318;2022-08-19T09:31:39;98684.84;;;22.02;57.70
28181;BME280;15464;50.988;10.318;2022-08-19T09:34:06;98683.59;;;22.05;57.98
28181;BME280;15464;50.988;10.318;2022-08-19T09:36:32;98687.34;;;22.04;57.64
28181;BME280;15464;50.988;10.318;2022-08-19T09:39:00;98685.69;;;21.96;56.31
28181;BME280;15464;50.988;10.318;2022-08-19T09:41:27;98677.75;;;21.88;56.63
28181;BME280;15464;50.988;10.318;2022-08-19T09:43:55;98686.28;;;21.92;56.88
28181;BME280;15464;50.988;10.318;2022-08-19T09:46:23;98678.59;;;22.02;56.42
28181;BME280;15464;50.988;10.318;2022-08-19T09:48:50;98677.38;;;21.98;56.43
28181;BME280;15464;50.988;10.318;2022-08-19T09:51:22;98672.72;;;22.18;57.32
28181;BME280;15464;50.988;10.318;2022-08-19T09:53:50;98663.16;;;22.35;57.39
28181;BME280;15464;50.988;10.318;2022-08-19T09:56:18;98669.41;;;22.29;57.44
28181;BME280;15464;50.988;10.318;2022-08-19T09:58:45;98670.13;;;22.49;57.78
28181;BME280;15464;50.988;10.318;2022-08-19T10:01:16;98668.00;;;22.65;55.72
28181;BME280;15464;50.988;10.318;2022-08-19T10:03:43;98662.16;;;22.74;55.56
28181;BME280;15464;50.988;10.318;2022-08-19T10:06:09;98673.41;;;22.78;56.65
28181;BME280;15464;50.988;10.318;2022-08-19T10:08:42;98670.84;;;22.89;56.08
28181;BME280;15464;50.988;10.318;2022-08-19T10:11:15;98664.25;;;22.79;56.07
28181;BME280;15464;50.988;10.318;2022-08-19T10:14:00;98664.16;;;22.92;56.13
28181;BME280;15464;50.988;10.318;2022-08-19T10:16:26;98660.81;;;22.97;56.33
28181;BME280;15464;50.988;10.318;2022-08-19T10:18:55;98665.72;;;23.06;55.84
28181;BME280;15464;50.988;10.318;2022-08-19T10:21:28;98669.03;;;23.15;55.65
28181;BME280;15464;50.988;10.318;2022-08-19T10:23:59;98674.38;;;23.21;55.50
28181;BME280;15464;50.988;10.318;2022-08-19T10:26:30;98660.44;;;23.18;54.98
28181;BME280;15464;50.988;10.318;2022-08-19T10:28:57;98661.69;;;23.22;54.64
28181;BME280;15464;50.988;10.318;2022-08-19T10:31:25;98660.84;;;23.21;54.94
28181;BME280;15464;50.988;10.318;2022-08-19T10:34:12;98655.69;;;23.13;55.16
28181;BME280;15464;50.988;10.318;2022-08-19T10:36:52;98661.94;;;23.14;55.03
28181;BME280;15464;50.988;10.318;2022-08-19T10:39:21;98661.97;;;23.07;55.18
28181;BME280;15464;50.988;10.318;2022-08-19T10:41:48;98655.63;;;23.26;54.29
28181;BME280;15464;50.988;10.318;2022-08-19T10:44:15;98660.66;;;23.23;54.19
28181;BME280;15464;50.988;10.318;2022-08-19T10:46:43;98661.03;;;23.26;54.32
28181;BME280;15464;50.988;10.318;2022-08-19T10:49:14;98660.09;;;23.39;54.61
28181;BME280;15464;50.988;10.318;2022-08-19T10:51:42;98653.44;;;23.42;53.70
28181;BME280;15464;50.988;10.318;2022-08-19T10:54:28;98652.59;;;23.41;52.77
28181;BME280;15464;50.988;10.318;2022-08-19T10:57:14;98644.84;;;23.45;54.12
28181;BME280;15464;50.988;10.318;2022-08-19T10:59:41;98647.13;;;23.54;53.50
28181;BME280;15464;50.988;10.318;2022-08-19T11:02:08;98649.81;;;23.54;52.59
28181;BME280;15464;50.988;10.318;2022-08-19T11:04:39;98647.47;;;23.58;53.21
28181;BME280;15464;50.988;10.318;2022-08-19T11:07:06;98649.16;;;23.59;53.61
28181;BME280;15464;50.988;10.318;2022-08-19T11:09:37;98649.31;;;23.64;52.75
28181;BME280;15464;50.988;10.318;2022-08-19T11:12:05;98638.81;;;23.43;52.76
28181;BME280;15464;50.988;10.318;2022-08-19T11:14:31;98646.19;;;23.36;53.51
28181;BME280;15464;50.988;10.318;2022-08-19T11:17:00;98637.28;;;23.28;53.96
28181;BME280;15464;50.988;10.318;2022-08-19T11:19:26;98638.06;;;23.36;53.31
28181;BME280;15464;50.988;10.318;2022-08-19T11:21:53;98649.22;;;23.46;53.10
28181;BME280;15464;50.988;10.318;2022-08-19T11:24:25;98646.88;;;23.56;53.25
28181;BME280;15464;50.988;10.318;2022-08-19T11:26:52;98650.56;;;23.61;52.58
28181;BME280;15464;50.988;10.318;2022-08-19T11:29:20;98643.28;;;23.62;52.28
28181;BME280;15464;50.988;10.318;2022-08-19T11:31:48;98652.63;;;23.66;52.48
28181;BME280;15464;50.988;10.318;2022-08-19T11:34:16;98638.13;;;23.79;52.69
28181;BME280;15464;50.988;10.318;2022-08-19T11:36:44;98646.97;;;23.92;52.71
28181;BME280;15464;50.988;10.318;2022-08-19T11:39:11;98637.84;;;24.05;51.59
28181;BME280;15464;50.988;10.318;2022-08-19T11:41:38;98647.00;;;24.10;51.42
28181;BME280;15464;50.988;10.318;2022-08-19T11:44:05;98635.47;;;24.15;51.13
28181;BME280;15464;50.988;10.318;2022-08-19T11:46:34;98632.28;;;24.18;50.17
28181;BME280;15464;50.988;10.318;2022-08-19T11:49:01;98632.78;;;24.33;49.77
28181;BME280;15464;50.988;10.318;2022-08-19T11:51:29;98629.09;;;24.46;49.09
28181;BME280;15464;50.988;10.318;2022-08-19T11:53:56;98619.56;;;24.73;48.77
28181;BME280;15464;50.988;10.318;2022-08-19T11:56:23;98615.19;;;25.02;48.54
28181;BME280;15464;50.988;10.318;2022-08-19T11:58:50;98610.84;;;25.13;48.75
28181;BME280;15464;50.988;10.318;2022-08-19T12:01:18;98613.84;;;25.23;49.05
28181;BME280;15464;50.988;10.318;2022-08-19T12:03:46;98612.69;;;25.42;49.06
28181;BME280;15464;50.988;10.318;2022-08-19T12:06:14;98610.88;;;25.36;48.51
28181;BME280;15464;50.988;10.318;2022-08-19T12:08:42;98608.66;;;25.33;48.32
28181;BME280;15464;50.988;10.318;2022-08-19T12:11:09;98607.38;;;25.47;47.77
28181;BME280;15464;50.988;10.318;2022-08-19T12:13:37;98605.63;;;25.88;47.90
28181;BME280;15464;50.988;10.318;2022-08-19T12:16:08;98599.63;;;26.61;46.18
28181;BME280;15464;50.988;10.318;2022-08-19T12:18:37;98598.81;;;27.05;45.88
28181;BME280;15464;50.988;10.318;2022-08-19T12:21:04;98594.75;;;27.53;45.25
28181;BME280;15464;50.988;10.318;2022-08-19T12:23:30;98597.31;;;27.59;42.42
28181;BME280;15464;50.988;10.318;2022-08-19T12:25:57;98593.94;;;27.52;43.64
28181;BME280;15464;50.988;10.318;2022-08-19T12:28:24;98594.97;;;27.85;43.03
28181;BME280;15464;50.988;10.318;2022-08-19T12:30:50;98599.38;;;28.07;41.85
28181;BME280;15464;50.988;10.318;2022-08-19T12:33:17;98589.28;;;28.08;41.95
28181;BME280;15464;50.988;10.318;2022-08-19T12:35:45;98579.72;;;27.67;42.81
28181;BME280;15464;50.988;10.318;2022-08-19T12:38:13;98580.56;;;27.89;41.79
28181;BME280;15464;50.988;10.318;2022-08-19T12:40:40;98571.38;;;28.34;43.18
28181;BME280;15464;50.988;10.318;2022-08-19T12:43:07;98558.19;;;28.26;42.22
28181;BME280;15464;50.988;10.318;2022-08-19T12:45:34;98551.34;;;28.06;41.52
28181;BME280;15464;50.988;10.318;2022-08-19T12:48:02;98552.97;;;28.46;40.42
28181;BME280;15464;50.988;10.318;2022-08-19T12:50:49;98544.06;;;28.77;41.88
28181;BME280;15464;50.988;10.318;2022-08-19T12:53:16;98547.59;;;28.56;40.69
28181;BME280;15464;50.988;10.318;2022-08-19T12:55:42;98546.88;;;28.39;39.97
28181;BME280;15464;50.988;10.318;2022-08-19T12:58:10;98541.38;;;28.82;38.36
28181;BME280;15464;50.988;10.318;2022-08-19T13:00:38;98540.97;;;28.47;40.44
28181;BME280;15464;50.988;10.318;2022-08-19T13:03:05;98544.53;;;28.26;40.63
28181;BME280;15464;50.988;10.318;2022-08-19T13:05:32;98540.03;;;27.76;41.22
28181;BME280;15464;50.988;10.318;2022-08-19T13:08:00;98542.13;;;27.69;42.06
28181;BME280;15464;50.988;10.318;2022-08-19T13:10:31;98543.84;;;27.75;40.80